Robijn — PBEJ — position and weather

sailwx.info

Track history (hours):
 
Tides and Currents Weather Stations Pressure Air Temp Water Temp Dewpoint Dewpoint Depression Visibility Wind Speed Wind Dir Waves Ship Positions

Robijn

Last reported at 2014-Aug-23 02:14 UTC. Time now 2014-Aug-31 00:38 UTC.
Position N 56°32' E 020°60'.

Length 90 m; draft 3.4 m.

Type: Cargo ship. MMSI: 245909000.

Date/timePositionNaut miles runAvg speedWind from/ knotsBaromVisibWave heightAir tempDewpointWater temp
2014-Aug-23 02:14N 56°32' E 020°60'2 2.1
2014-Aug-23 01:03N 56°32' E 020°55'3 5.0
2014-Aug-23 00:30N 56°31' E 020°51'188 6.7
2014-Aug-21 20:25N 55°32' E 015°32'1011.6
2014-Aug-21 19:31N 55°29' E 015°14'1111.6
2014-Aug-21 18:33N 55°26' E 014°55'1111.1
2014-Aug-21 17:32N 55°21' E 014°37'1111.4
2014-Aug-21 16:33N 55°13' E 014°25'1111.1
2014-Aug-21 15:32N 55°04' E 014°11'1211.3
2014-Aug-21 14:27N 54°59' E 013°52'1011.5
2014-Aug-21 13:33N 54°55' E 013°36'1211.3
2014-Aug-21 12:32N 54°49' E 013°18'1111.5
2014-Aug-21 11:33N 54°44' E 013°01'1211.6
2014-Aug-21 10:33N 54°39' E 012°43'1211.7
2014-Aug-21 09:33N 54°34' E 012°25'1211.7
2014-Aug-21 08:33N 54°25' E 012°11'1212.4
2014-Aug-21 07:33N 54°25' E 011°49'78 6.9
2014-Aug-20 20:19N 54°15' E 009°37'6 8.0
2014-Aug-20 19:32N 54°11' E 009°28'8 8.0
2014-Aug-20 18:33N 54°05' E 009°19'9 8.7
2014-Aug-20 17:33N 53°57' E 009°14'5 4.7
2014-Aug-20 16:33N 53°54' E 009°09'3 2.6
2014-Aug-20 15:33N 53°53' E 009°05'9 9.1
2014-Aug-20 14:33N 53°50' E 008°50'8 8.4
2014-Aug-20 13:33N 53°56' E 008°39'10 9.7
2014-Aug-20 12:33N 53°59' E 008°24'1110.9
2014-Aug-20 11:33N 53°58' E 008°05'6 5.8
2014-Aug-20 10:33N 53°53' E 008°07'1212.2
2014-Aug-20 09:33N 53°43' E 008°19'1312.6
2014-Aug-20 08:33N 53°33' E 008°33'1110.5
2014-Aug-20 07:33N 53°23' E 008°30'1010.2
2014-Aug-20 06:33N 53°13' E 008°30'9 9.3
2014-Aug-20 05:33N 53°07' E 008°42'1 0.8
2014-Aug-20 04:32N 53°08' E 008°43'0 0.0
2014-Aug-20 03:32N 53°08' E 008°43'0 0.0
2014-Aug-20 02:32N 53°08' E 008°43'0 0.0
2014-Aug-20 01:32N 53°08' E 008°43'0 0.0
2014-Aug-20 00:32N 53°08' E 008°43'0 0.0
2014-Aug-19 23:32N 53°08' E 008°43'0 0.0
2014-Aug-19 22:32N 53°08' E 008°43'0 0.0
2014-Aug-19 21:32N 53°08' E 008°43'0 0.0
2014-Aug-19 20:32N 53°08' E 008°43'0 0.0
2014-Aug-19 19:32N 53°08' E 008°43'0 0.0
2014-Aug-19 18:32N 53°08' E 008°43'0 0.0
2014-Aug-19 17:32N 53°08' E 008°43'0 0.0
2014-Aug-19 16:32N 53°08' E 008°43'0 0.0
2014-Aug-19 15:32N 53°08' E 008°43'0 0.0
2014-Aug-19 14:32N 53°08' E 008°43'0 0.0
2014-Aug-19 13:32N 53°08' E 008°43'0 0.0
2014-Aug-19 12:32N 53°08' E 008°43'0 0.0
2014-Aug-19 11:32N 53°08' E 008°43'0 0.0
2014-Aug-19 10:32N 53°08' E 008°43'0 0.0
2014-Aug-19 09:32N 53°08' E 008°43'0 0.0
2014-Aug-19 08:32N 53°08' E 008°43'0 0.0
2014-Aug-19 07:32N 53°08' E 008°43'0 0.0
2014-Aug-19 06:32N 53°08' E 008°43'0 0.0
2014-Aug-19 05:32N 53°08' E 008°43'0 0.0
2014-Aug-19 04:32N 53°08' E 008°43'0 0.0
2014-Aug-19 03:32N 53°08' E 008°43'0 0.0
2014-Aug-19 02:32N 53°08' E 008°43'0 0.0
2014-Aug-19 01:32N 53°08' E 008°43'0 0.0
2014-Aug-19 00:32N 53°08' E 008°43'0 0.0
2014-Aug-18 23:32N 53°08' E 008°43'0 0.0
2014-Aug-18 22:32N 53°08' E 008°43'0 0.0
2014-Aug-18 21:32N 53°08' E 008°43'0 0.0
2014-Aug-18 20:32N 53°08' E 008°43'0 0.0
2014-Aug-18 19:32N 53°08' E 008°43'0 0.0
2014-Aug-18 18:32N 53°08' E 008°43'0 0.0
2014-Aug-18 17:29N 53°08' E 008°43'0 0.0
2014-Aug-18 16:32N 53°08' E 008°43'0 0.0
2014-Aug-18 15:32N 53°08' E 008°43'0 0.0
2014-Aug-18 14:32N 53°08' E 008°43'0 0.0
2014-Aug-18 13:32N 53°08' E 008°43'0 0.0
2014-Aug-18 12:32N 53°08' E 008°43'0 0.0
2014-Aug-18 11:32N 53°08' E 008°43'0 0.0
2014-Aug-18 10:32N 53°08' E 008°43'0 0.0
2014-Aug-18 09:32N 53°08' E 008°43'0 0.0
2014-Aug-18 08:32N 53°08' E 008°43'0 0.0
2014-Aug-18 07:32N 53°08' E 008°43'0 0.0
2014-Aug-18 06:32N 53°08' E 008°43'0 0.0
2014-Aug-18 05:32N 53°08' E 008°43'0 0.0
2014-Aug-18 04:32N 53°08' E 008°43'0 0.0
2014-Aug-18 03:32N 53°08' E 008°43'0 0.0
2014-Aug-18 02:32N 53°07' E 008°43'0 0.0
2014-Aug-18 01:32N 53°07' E 008°43'0 0.0
2014-Aug-18 00:32N 53°08' E 008°43'0 0.0
2014-Aug-17 18:32N 53°08' E 008°43'0 0.0
2014-Aug-17 17:32N 53°08' E 008°43'0 0.0
2014-Aug-17 16:32N 53°08' E 008°43'0 0.0
2014-Aug-17 15:32N 53°08' E 008°43'0 0.0
2014-Aug-17 14:32N 53°08' E 008°43'0 0.0
2014-Aug-17 13:32N 53°08' E 008°43'0 0.0
2014-Aug-17 12:32N 53°08' E 008°43'0 0.0
2014-Aug-17 11:32N 53°08' E 008°43'0 0.0
2014-Aug-17 10:32N 53°08' E 008°43'0 0.0
2014-Aug-17 09:32N 53°08' E 008°43'0 0.0
2014-Aug-17 08:32N 53°08' E 008°43'0 0.0
2014-Aug-17 07:32N 53°08' E 008°43'0 0.0
2014-Aug-17 06:32N 53°08' E 008°43'0 0.0
2014-Aug-17 05:32N 53°08' E 008°43'0 0.5
2014-Aug-17 04:34N 53°07' E 008°42'8 7.8
2014-Aug-17 03:33N 53°12' E 008°32'8 8.2
2014-Aug-17 02:33N 53°20' E 008°29'8 7.7
2014-Aug-17 01:33N 53°27' E 008°29'7 7.0
2014-Aug-17 00:33N 53°34' E 008°32'8 8.3
2014-Aug-16 23:33N 53°40' E 008°23'10 9.7
2014-Aug-16 22:33N 53°46' E 008°10'9 8.7
2014-Aug-16 21:33N 53°54' E 008°02'5 5.3
2014-Aug-16 20:33N 53°58' E 008°08'9 9.3
2014-Aug-16 19:33N 53°60' E 008°23'1211.5
2014-Aug-16 18:33N 53°55' E 008°41'9 9.3
2014-Aug-16 17:33N 53°51' E 008°55'8 8.3
2014-Aug-16 16:33N 53°53' E 009°08'1 0.8
2014-Aug-16 15:33N 53°54' E 009°09'0 0.1
2014-Aug-16 14:32N 53°54' E 009°10'0 0.0
2014-Aug-16 13:29N 53°54' E 009°10'0 0.0
2014-Aug-16 12:32N 53°54' E 009°10'0 0.0
2014-Aug-16 11:32N 53°54' E 009°10'0 0.0
2014-Aug-16 10:32N 53°54' E 009°09'0 0.0
2014-Aug-16 09:32N 53°54' E 009°10'0 0.0
2014-Aug-16 08:32N 53°54' E 009°10'0 0.0
2014-Aug-16 07:32N 53°54' E 009°10'0 0.0
2014-Aug-16 06:32N 53°54' E 009°10'0 0.0
2014-Aug-16 05:29N 53°54' E 009°10'3 3.5
2014-Aug-16 04:34N 53°56' E 009°13'7 6.7
2014-Aug-16 03:34N 54°02' E 009°18'7 6.8
2014-Aug-16 02:33N 54°09' E 009°21'8 8.2
2014-Aug-16 01:33N 54°12' E 009°34'3 2.6
2014-Aug-16 00:32N 54°15' E 009°37'2 1.7
2014-Aug-15 23:33N 54°16' E 009°38'71 6.4
2014-Aug-15 12:33N 54°31' E 011°36'8 7.9
2014-Aug-15 11:29N 54°29' E 011°50'8 8.1
2014-Aug-15 10:33N 54°27' E 012°03'8 7.7
2014-Aug-15 09:33N 54°32' E 012°13'8 8.4
2014-Aug-15 08:33N 54°39' E 012°21'9 8.7
2014-Aug-15 07:33N 54°44' E 012°34'9 9.0
2014-Aug-15 06:33N 54°48' E 012°47'9 8.8
2014-Aug-15 05:34N 54°52' E 013°01'12 8.9
2014-Aug-15 04:12N 54°57' E 013°20'6 9.1
2014-Aug-15 03:31N 54°59' E 013°30'26 8.8
2014-Aug-15 00:34N 55°10' E 014°11'9 8.6
2014-Aug-14 23:33N 55°17' E 014°21'9 8.7
2014-Aug-14 22:33N 55°23' E 014°32'9 8.9
2014-Aug-14 21:33N 55°29' E 014°44'9 8.8
2014-Aug-14 20:34N 55°33' E 014°58'10 8.5
2014-Aug-14 19:21N 55°38' E 015°13'8 8.3
2014-Aug-14 18:22N 55°42' E 015°25'6 8.0
2014-Aug-14 17:33N 55°46' E 015°35'8 7.9
2014-Aug-14 16:33N 55°50' E 015°47'8 7.9
2014-Aug-14 15:30N 55°55' E 015°60'7 7.7
2014-Aug-14 14:33N 55°58' E 016°11'8 8.0
2014-Aug-14 13:33N 56°02' E 016°23'82 9.1
2014-Aug-14 04:30N 56°51' E 018°22'9 9.2
2014-Aug-14 03:31N 56°58' E 018°33'  
Track history (hours):
 
Tides and Currents Weather Stations Pressure Air Temp Water Temp Dewpoint Dewpoint Depression Visibility Wind Speed Wind Dir Waves Ship Positions

Robijn

Last reported at 2014-Aug-23 02:14 UTC. Time now 2014-Aug-31 00:39 UTC.
Position N 56°32' E 020°60'.

Length 90 m; draft 3.4 m.

Type: Cargo ship. MMSI: 245909000.

Date/timePositionNaut miles runAvg speedWind from/ knotsBaromVisibWave heightAir tempDewpointWater temp
2014-Aug-23 02:14N 56°32' E 020°60'2 2.1
2014-Aug-23 01:03N 56°32' E 020°55'3 5.0
2014-Aug-23 00:30N 56°31' E 020°51'188 6.7
2014-Aug-21 20:25N 55°32' E 015°32'1011.6
2014-Aug-21 19:31N 55°29' E 015°14'1111.6
2014-Aug-21 18:33N 55°26' E 014°55'1111.1
2014-Aug-21 17:32N 55°21' E 014°37'1111.4
2014-Aug-21 16:33N 55°13' E 014°25'1111.1
2014-Aug-21 15:32N 55°04' E 014°11'1211.3
2014-Aug-21 14:27N 54°59' E 013°52'1011.5
2014-Aug-21 13:33N 54°55' E 013°36'1211.3
2014-Aug-21 12:32N 54°49' E 013°18'1111.5
2014-Aug-21 11:33N 54°44' E 013°01'1211.6
2014-Aug-21 10:33N 54°39' E 012°43'1211.7
2014-Aug-21 09:33N 54°34' E 012°25'1211.7
2014-Aug-21 08:33N 54°25' E 012°11'1212.4
2014-Aug-21 07:33N 54°25' E 011°49'78 6.9
2014-Aug-20 20:19N 54°15' E 009°37'6 8.0
2014-Aug-20 19:32N 54°11' E 009°28'8 8.0
2014-Aug-20 18:33N 54°05' E 009°19'9 8.7
2014-Aug-20 17:33N 53°57' E 009°14'5 4.7
2014-Aug-20 16:33N 53°54' E 009°09'3 2.6
2014-Aug-20 15:33N 53°53' E 009°05'9 9.1
2014-Aug-20 14:33N 53°50' E 008°50'8 8.4
2014-Aug-20 13:33N 53°56' E 008°39'10 9.7
2014-Aug-20 12:33N 53°59' E 008°24'1110.9
2014-Aug-20 11:33N 53°58' E 008°05'6 5.8
2014-Aug-20 10:33N 53°53' E 008°07'1212.2
2014-Aug-20 09:33N 53°43' E 008°19'1312.6
2014-Aug-20 08:33N 53°33' E 008°33'1110.5
2014-Aug-20 07:33N 53°23' E 008°30'1010.2
2014-Aug-20 06:33N 53°13' E 008°30'9 9.3
2014-Aug-20 05:33N 53°07' E 008°42'1 0.8
2014-Aug-20 04:32N 53°08' E 008°43'0 0.0
2014-Aug-20 03:32N 53°08' E 008°43'0 0.0
2014-Aug-20 02:32N 53°08' E 008°43'0 0.0
2014-Aug-20 01:32N 53°08' E 008°43'0 0.0
2014-Aug-20 00:32N 53°08' E 008°43'0 0.0
2014-Aug-19 23:32N 53°08' E 008°43'0 0.0
2014-Aug-19 22:32N 53°08' E 008°43'0 0.0
2014-Aug-19 21:32N 53°08' E 008°43'0 0.0
2014-Aug-19 20:32N 53°08' E 008°43'0 0.0
2014-Aug-19 19:32N 53°08' E 008°43'0 0.0
2014-Aug-19 18:32N 53°08' E 008°43'0 0.0
2014-Aug-19 17:32N 53°08' E 008°43'0 0.0
2014-Aug-19 16:32N 53°08' E 008°43'0 0.0
2014-Aug-19 15:32N 53°08' E 008°43'0 0.0
2014-Aug-19 14:32N 53°08' E 008°43'0 0.0
2014-Aug-19 13:32N 53°08' E 008°43'0 0.0
2014-Aug-19 12:32N 53°08' E 008°43'0 0.0
2014-Aug-19 11:32N 53°08' E 008°43'0 0.0
2014-Aug-19 10:32N 53°08' E 008°43'0 0.0
2014-Aug-19 09:32N 53°08' E 008°43'0 0.0
2014-Aug-19 08:32N 53°08' E 008°43'0 0.0
2014-Aug-19 07:32N 53°08' E 008°43'0 0.0
2014-Aug-19 06:32N 53°08' E 008°43'0 0.0
2014-Aug-19 05:32N 53°08' E 008°43'0 0.0
2014-Aug-19 04:32N 53°08' E 008°43'0 0.0
2014-Aug-19 03:32N 53°08' E 008°43'0 0.0
2014-Aug-19 02:32N 53°08' E 008°43'0 0.0
2014-Aug-19 01:32N 53°08' E 008°43'0 0.0
2014-Aug-19 00:32N 53°08' E 008°43'0 0.0
2014-Aug-18 23:32N 53°08' E 008°43'0 0.0
2014-Aug-18 22:32N 53°08' E 008°43'0 0.0
2014-Aug-18 21:32N 53°08' E 008°43'0 0.0
2014-Aug-18 20:32N 53°08' E 008°43'0 0.0
2014-Aug-18 19:32N 53°08' E 008°43'0 0.0
2014-Aug-18 18:32N 53°08' E 008°43'0 0.0
2014-Aug-18 17:29N 53°08' E 008°43'0 0.0
2014-Aug-18 16:32N 53°08' E 008°43'0 0.0
2014-Aug-18 15:32N 53°08' E 008°43'0 0.0
2014-Aug-18 14:32N 53°08' E 008°43'0 0.0
2014-Aug-18 13:32N 53°08' E 008°43'0 0.0
2014-Aug-18 12:32N 53°08' E 008°43'0 0.0
2014-Aug-18 11:32N 53°08' E 008°43'0 0.0
2014-Aug-18 10:32N 53°08' E 008°43'0 0.0
2014-Aug-18 09:32N 53°08' E 008°43'0 0.0
2014-Aug-18 08:32N 53°08' E 008°43'0 0.0
2014-Aug-18 07:32N 53°08' E 008°43'0 0.0
2014-Aug-18 06:32N 53°08' E 008°43'0 0.0
2014-Aug-18 05:32N 53°08' E 008°43'0 0.0
2014-Aug-18 04:32N 53°08' E 008°43'0 0.0
2014-Aug-18 03:32N 53°08' E 008°43'0 0.0
2014-Aug-18 02:32N 53°07' E 008°43'0 0.0
2014-Aug-18 01:32N 53°07' E 008°43'0 0.0
2014-Aug-18 00:32N 53°08' E 008°43'0 0.0
2014-Aug-17 18:32N 53°08' E 008°43'0 0.0
2014-Aug-17 17:32N 53°08' E 008°43'0 0.0
2014-Aug-17 16:32N 53°08' E 008°43'0 0.0
2014-Aug-17 15:32N 53°08' E 008°43'0 0.0
2014-Aug-17 14:32N 53°08' E 008°43'0 0.0
2014-Aug-17 13:32N 53°08' E 008°43'0 0.0
2014-Aug-17 12:32N 53°08' E 008°43'0 0.0
2014-Aug-17 11:32N 53°08' E 008°43'0 0.0
2014-Aug-17 10:32N 53°08' E 008°43'0 0.0
2014-Aug-17 09:32N 53°08' E 008°43'0 0.0
2014-Aug-17 08:32N 53°08' E 008°43'0 0.0
2014-Aug-17 07:32N 53°08' E 008°43'0 0.0
2014-Aug-17 06:32N 53°08' E 008°43'0 0.0
2014-Aug-17 05:32N 53°08' E 008°43'0 0.5
2014-Aug-17 04:34N 53°07' E 008°42'8 7.8
2014-Aug-17 03:33N 53°12' E 008°32'8 8.2
2014-Aug-17 02:33N 53°20' E 008°29'8 7.7
2014-Aug-17 01:33N 53°27' E 008°29'7 7.0
2014-Aug-17 00:33N 53°34' E 008°32'8 8.3
2014-Aug-16 23:33N 53°40' E 008°23'10 9.7
2014-Aug-16 22:33N 53°46' E 008°10'9 8.7
2014-Aug-16 21:33N 53°54' E 008°02'5 5.3
2014-Aug-16 20:33N 53°58' E 008°08'9 9.3
2014-Aug-16 19:33N 53°60' E 008°23'1211.5
2014-Aug-16 18:33N 53°55' E 008°41'9 9.3
2014-Aug-16 17:33N 53°51' E 008°55'8 8.3
2014-Aug-16 16:33N 53°53' E 009°08'1 0.8
2014-Aug-16 15:33N 53°54' E 009°09'0 0.1
2014-Aug-16 14:32N 53°54' E 009°10'0 0.0
2014-Aug-16 13:29N 53°54' E 009°10'0 0.0
2014-Aug-16 12:32N 53°54' E 009°10'0 0.0
2014-Aug-16 11:32N 53°54' E 009°10'0 0.0
2014-Aug-16 10:32N 53°54' E 009°09'0 0.0
2014-Aug-16 09:32N 53°54' E 009°10'0 0.0
2014-Aug-16 08:32N 53°54' E 009°10'0 0.0
2014-Aug-16 07:32N 53°54' E 009°10'0 0.0
2014-Aug-16 06:32N 53°54' E 009°10'0 0.0
2014-Aug-16 05:29N 53°54' E 009°10'3 3.5
2014-Aug-16 04:34N 53°56' E 009°13'7 6.7
2014-Aug-16 03:34N 54°02' E 009°18'7 6.8
2014-Aug-16 02:33N 54°09' E 009°21'8 8.2
2014-Aug-16 01:33N 54°12' E 009°34'3 2.6
2014-Aug-16 00:32N 54°15' E 009°37'2 1.7
2014-Aug-15 23:33N 54°16' E 009°38'71 6.4
2014-Aug-15 12:33N 54°31' E 011°36'8 7.9
2014-Aug-15 11:29N 54°29' E 011°50'8 8.1
2014-Aug-15 10:33N 54°27' E 012°03'8 7.7
2014-Aug-15 09:33N 54°32' E 012°13'8 8.4
2014-Aug-15 08:33N 54°39' E 012°21'9 8.7
2014-Aug-15 07:33N 54°44' E 012°34'9 9.0
2014-Aug-15 06:33N 54°48' E 012°47'9 8.8
2014-Aug-15 05:34N 54°52' E 013°01'12 8.9
2014-Aug-15 04:12N 54°57' E 013°20'6 9.1
2014-Aug-15 03:31N 54°59' E 013°30'26 8.8
2014-Aug-15 00:34N 55°10' E 014°11'9 8.6
2014-Aug-14 23:33N 55°17' E 014°21'9 8.7
2014-Aug-14 22:33N 55°23' E 014°32'9 8.9
2014-Aug-14 21:33N 55°29' E 014°44'9 8.8
2014-Aug-14 20:34N 55°33' E 014°58'10 8.5
2014-Aug-14 19:21N 55°38' E 015°13'8 8.3
2014-Aug-14 18:22N 55°42' E 015°25'6 8.0
2014-Aug-14 17:33N 55°46' E 015°35'8 7.9
2014-Aug-14 16:33N 55°50' E 015°47'8 7.9
2014-Aug-14 15:30N 55°55' E 015°60'7 7.7
2014-Aug-14 14:33N 55°58' E 016°11'8 8.0
2014-Aug-14 13:33N 56°02' E 016°23'82 9.1
2014-Aug-14 04:30N 56°51' E 018°22'9 9.2
2014-Aug-14 03:31N 56°58' E 018°33'  

Dump ship's entire track history